Time;durP1;ratioP1;P1;durP2;ratioP2;P2;SDS_P1;SDS_P2;PMS_P1;PMS_P2;Temp;Humidity;BMP_temperature;BMP_pressure;BME280_temperature;BME280_humidity;BME280_pressure;Samples;Min_cycle;Max_cycle;Signal;HPM_P1;HPM_P2
2024/03/02 00:00:52;;;;;;;2.58;1.50;;;;;;;8.68;38.57;99661.78;5095408;28;20037;-79
2024/03/02 00:03:21;;;;;;;2.83;1.58;;;;;;;8.68;38.86;99656.31;5099794;28;20041;-79
2024/03/02 00:05:52;;;;;;;2.80;1.50;;;;;;;8.69;38.82;99667.09;5090223;28;20052;-80
2024/03/02 00:08:25;;;;;;;3.17;1.65;;;;;;;8.67;38.97;99660.09;5081671;28;20055;-80
2024/03/02 00:10:58;;;;;;;3.28;1.83;;;;;;;8.67;39.29;99657.38;5073609;28;20515;-80
2024/03/02 00:13:29;;;;;;;3.25;1.58;;;;;;;8.65;38.79;99649.34;5097026;28;20344;-80
2024/03/02 00:15:58;;;;;;;2.88;1.60;;;;;;;8.64;39.00;99654.94;5083132;28;20131;-80
2024/03/02 00:18:28;;;;;;;2.63;1.35;;;;;;;8.65;39.16;99648.47;5100520;28;20037;-80
2024/03/02 00:25:00;;;;;;;2.53;1.50;;;;;;;8.57;39.05;99635.59;5093950;28;20067;-81
2024/03/02 00:28:26;;;;;;;3.03;2.00;;;;;;;8.57;39.60;99640.19;5079018;28;20494;-81
2024/03/02 00:31:44;;;;;;;2.22;1.52;;;;;;;8.54;39.41;99629.56;5091902;28;20131;-79
2024/03/02 00:34:16;;;;;;;3.15;1.60;;;;;;;8.56;39.48;99633.00;5085560;28;20044;-78
2024/03/02 00:36:44;;;;;;;3.83;1.80;;;;;;;8.55;39.27;99634.88;5075930;28;20046;-78
2024/03/02 00:39:13;;;;;;;2.78;1.60;;;;;;;8.60;39.22;99632.53;5085760;28;20044;-78
2024/03/02 00:41:43;;;;;;;2.97;1.60;;;;;;;8.61;39.01;99634.25;5086711;28;20134;-79
2024/03/02 00:44:16;;;;;;;2.90;1.50;;;;;;;8.63;38.82;99642.31;5089433;28;20171;-78
2024/03/02 00:46:47;;;;;;;3.70;1.58;;;;;;;8.64;39.07;99641.28;5067289;28;20044;-78
2024/03/02 00:49:20;;;;;;;3.40;1.65;;;;;;;8.66;39.35;99633.81;5083081;28;20036;-79
2024/03/02 00:51:49;;;;;;;2.80;1.60;;;;;;;8.65;39.29;99643.88;5066053;28;20054;-79
2024/03/02 00:54:21;;;;;;;2.88;1.45;;;;;;;8.68;39.13;99637.22;5091832;28;20044;-78
2024/03/02 00:56:49;;;;;;;3.03;1.70;;;;;;;8.67;39.06;99627.38;5067890;28;20052;-78
2024/03/02 00:59:17;;;;;;;2.63;1.48;;;;;;;8.67;39.17;99628.19;5087313;28;20770;-78
2024/03/02 01:01:48;;;;;;;3.35;1.90;;;;;;;8.68;39.31;99626.31;5067770;28;20040;-77
2024/03/02 01:04:17;;;;;;;3.97;1.70;;;;;;;8.68;39.07;99634.50;5089450;28;20044;-78
2024/03/02 01:06:45;;;;;;;3.72;2.00;;;;;;;8.70;39.54;99637.94;5064479;28;20066;-78
2024/03/02 01:09:13;;;;;;;2.50;1.50;;;;;;;8.69;39.42;99628.03;5072908;28;20047;-77
2024/03/02 01:11:41;;;;;;;2.95;1.50;;;;;;;8.71;39.13;99637.81;5084312;28;20047;-78
2024/03/02 01:14:10;;;;;;;3.67;1.60;;;;;;;8.70;39.29;99641.53;5087425;28;20118;-78
2024/03/02 01:16:38;;;;;;;3.15;1.60;;;;;;;8.72;39.33;99641.38;5085357;28;20071;-77
2024/03/02 01:19:07;;;;;;;2.83;1.55;;;;;;;8.73;39.13;99642.25;5068865;28;20039;-78
2024/03/02 01:21:36;;;;;;;3.22;1.60;;;;;;;8.73;39.11;99642.25;5087046;28;20075;-77
2024/03/02 01:24:04;;;;;;;3.22;1.67;;;;;;;8.75;39.30;99646.56;5062925;28;20431;-77
2024/03/02 01:26:32;;;;;;;2.58;1.50;;;;;;;8.76;39.13;99642.78;5086065;28;20513;-79
2024/03/02 01:29:00;;;;;;;2.92;1.35;;;;;;;8.77;39.31;99643.66;5085086;28;20047;-78
2024/03/02 01:31:28;;;;;;;3.78;1.50;;;;;;;8.79;39.37;99644.38;5068928;28;20512;-78
2024/03/02 01:33:56;;;;;;;3.50;1.50;;;;;;;8.80;39.21;99640.63;5085824;28;20045;-78
2024/03/02 01:36:25;;;;;;;2.72;1.73;;;;;;;8.82;39.42;99639.47;5085186;28;20048;-78
2024/03/02 01:38:53;;;;;;;2.28;1.30;;;;;;;8.82;39.20;99644.06;5074114;28;20182;-77
2024/03/02 01:41:21;;;;;;;2.17;1.30;;;;;;;8.81;39.27;99635.03;5086720;28;20075;-79
2024/03/02 01:43:49;;;;;;;2.08;1.27;;;;;;;8.81;38.86;99628.72;5068408;28;20044;-78
2024/03/02 01:46:17;;;;;;;2.40;1.30;;;;;;;8.83;39.21;99630.28;5079894;28;20135;-79
2024/03/02 01:48:45;;;;;;;3.70;1.50;;;;;;;8.83;39.35;99618.50;5087251;28;20538;-78
2024/03/02 01:51:13;;;;;;;3.05;1.30;;;;;;;8.83;38.86;99616.63;5070940;28;20119;-78
2024/03/02 01:53:43;;;;;;;3.25;1.40;;;;;;;8.83;39.23;99630.28;5091264;28;20036;-78
2024/03/02 01:56:11;;;;;;;2.67;1.30;;;;;;;8.83;39.20;99619.38;5087329;28;20044;-78
2024/03/02 01:58:39;;;;;;;2.65;1.23;;;;;;;8.84;39.06;99628.38;5090326;28;20080;-78
2024/03/02 02:01:07;;;;;;;3.20;1.30;;;;;;;8.83;39.03;99627.56;5080907;28;20414;-78
2024/03/02 02:03:35;;;;;;;2.28;1.45;;;;;;;8.84;38.78;99631.97;5065010;28;20469;-78
2024/03/02 02:06:03;;;;;;;3.63;1.40;;;;;;;8.85;38.95;99636.41;5083560;28;20073;-78
2024/03/02 02:08:31;;;;;;;3.05;1.38;;;;;;;8.85;39.24;99635.56;5091335;28;20028;-79
2024/03/02 02:11:01;;;;;;;2.80;1.27;;;;;;;8.87;39.11;99637.13;5083544;28;20394;-78
2024/03/02 02:13:29;;;;;;;2.53;1.30;;;;;;;8.86;38.81;99626.38;5069034;28;20076;-78
2024/03/02 02:16:04;;;;;;;2.15;1.30;;;;;;;8.87;39.04;99634.41;5068641;28;20086;-78
2024/03/02 02:18:33;;;;;;;2.65;1.50;;;;;;;8.88;39.21;99638.00;5071564;28;20094;-78
2024/03/02 02:21:01;;;;;;;1.92;1.20;;;;;;;8.89;38.82;99636.97;5082264;28;20044;-78
2024/03/02 02:23:30;;;;;;;2.75;1.20;;;;;;;8.91;39.03;99634.97;5080132;28;20511;-78
2024/03/02 02:25:58;;;;;;;2.72;1.13;;;;;;;8.91;38.99;99629.50;5083812;28;20489;-78
2024/03/02 02:28:26;;;;;;;2.75;1.40;;;;;;;8.91;39.06;99633.09;5067552;28;20066;-77
2024/03/02 02:30:56;;;;;;;2.10;1.10;;;;;;;8.94;38.88;99635.50;5067564;28;20067;-78
2024/03/02 02:33:24;;;;;;;2.45;1.30;;;;;;;8.92;38.99;99648.44;5060690;28;20055;-78
2024/03/02 02:35:52;;;;;;;1.90;1.17;;;;;;;8.94;39.21;99654.59;5084530;28;20383;-78
2024/03/02 02:38:20;;;;;;;3.10;1.35;;;;;;;8.96;39.14;99638.94;5067506;28;20070;-78
2024/03/02 02:40:49;;;;;;;1.67;1.13;;;;;;;8.98;39.09;99642.38;5063809;28;20079;-77
2024/03/02 02:43:17;;;;;;;3.15;1.20;;;;;;;8.97;39.00;99643.41;5069993;28;20048;-78
2024/03/02 02:45:45;;;;;;;3.20;1.70;;;;;;;8.98;39.06;99645.13;5071533;28;20046;-78
2024/03/02 02:48:13;;;;;;;2.47;1.27;;;;;;;8.99;39.04;99633.19;5091832;28;20043;-78
2024/03/02 02:50:42;;;;;;;2.17;1.30;;;;;;;9.02;39.18;99640.19;5087806;28;20575;-76
2024/03/02 02:53:10;;;;;;;2.78;1.40;;;;;;;9.01;39.29;99631.13;5092757;28;20131;-77
2024/03/02 02:55:40;;;;;;;2.70;1.40;;;;;;;9.05;39.06;99623.53;5091670;28;20111;-78
2024/03/02 02:58:09;;;;;;;2.63;1.35;;;;;;;9.05;38.79;99628.97;5088170;28;20044;-77
2024/03/02 03:00:37;;;;;;;3.22;1.52;;;;;;;9.04;38.89;99636.31;5089315;28;20048;-78
2024/03/02 03:03:06;;;;;;;2.78;1.40;;;;;;;9.05;39.19;99631.69;5077731;28;20040;-78
2024/03/02 03:05:34;;;;;;;2.33;1.30;;;;;;;9.07;39.04;99629.69;5084157;28;20105;-78
2024/03/02 03:08:02;;;;;;;2.63;1.20;;;;;;;9.07;39.03;99633.28;5069830;28;20049;-78
2024/03/02 03:10:30;;;;;;;2.45;1.40;;;;;;;9.07;38.85;99629.69;5073185;28;20047;-78
2024/03/02 03:12:58;;;;;;;2.38;1.20;;;;;;;9.08;38.85;99637.69;5091245;28;20064;-78
2024/03/02 03:15:28;;;;;;;2.33;1.30;;;;;;;9.10;38.97;99637.53;5085677;28;20044;-78
2024/03/02 03:17:56;;;;;;;2.30;1.30;;;;;;;9.08;38.74;99642.31;5072442;28;20054;-77
2024/03/02 03:20:24;;;;;;;2.03;1.10;;;;;;;9.09;39.08;99644.00;5064137;28;20045;-77
2024/03/02 03:22:52;;;;;;;2.17;1.10;;;;;;;9.08;39.05;99642.31;5067064;28;20491;-79
2024/03/02 03:25:20;;;;;;;1.73;1.05;;;;;;;9.09;38.85;99638.56;5069845;28;20533;-79
2024/03/02 03:27:48;;;;;;;2.15;1.30;;;;;;;9.10;38.83;99643.00;5086896;28;20479;-78
2024/03/02 03:30:16;;;;;;;2.75;1.40;;;;;;;9.09;38.93;99639.41;5079646;28;20056;-77
2024/03/02 03:32:47;;;;;;;2.38;1.25;;;;;;;9.10;39.17;99643.88;5075329;28;20462;-78
2024/03/02 03:35:15;;;;;;;2.20;1.10;;;;;;;9.09;39.04;99658.53;5069420;28;20050;-78
2024/03/02 03:37:43;;;;;;;3.53;1.35;;;;;;;9.09;38.54;99650.34;5088392;28;20052;-77
2024/03/02 03:40:13;;;;;;;3.08;1.55;;;;;;;9.09;38.71;99650.34;5083658;28;20044;-78
2024/03/02 03:42:41;;;;;;;1.70;1.23;;;;;;;9.07;38.73;99646.91;5068436;28;20060;-77
2024/03/02 03:45:10;;;;;;;1.80;1.17;;;;;;;9.08;38.71;99656.81;5084348;28;20040;-78
2024/03/02 03:47:38;;;;;;;2.88;1.30;;;;;;;9.07;39.13;99652.38;5072745;28;20050;-79
2024/03/02 03:50:08;;;;;;;2.85;1.30;;;;;;;9.09;38.69;99646.75;5076801;28;20039;-79
2024/03/02 03:52:36;;;;;;;2.17;1.33;;;;;;;9.07;38.79;99649.66;5087445;28;20054;-78
2024/03/02 03:55:06;;;;;;;2.53;1.40;;;;;;;9.07;38.80;99637.88;5084465;28;20093;-78
2024/03/02 03:57:34;;;;;;;2.45;1.10;;;;;;;9.05;39.09;99640.75;5081783;28;20150;-78
2024/03/02 04:00:02;;;;;;;2.60;1.48;;;;;;;9.06;38.78;99641.63;5072524;28;20214;-78
2024/03/02 04:02:38;;;;;;;2.97;1.35;;;;;;;9.04;39.17;99643.63;5085406;28;20530;-77
2024/03/02 04:05:10;;;;;;;2.63;1.40;;;;;;;9.07;38.72;99646.91;5090753;28;20067;-77
2024/03/02 04:07:40;;;;;;;2.00;1.17;;;;;;;9.01;39.23;99658.44;5073642;28;20047;-77
2024/03/02 04:10:09;;;;;;;2.42;1.30;;;;;;;9.02;38.79;99646.50;5061853;28;20400;-77
2024/03/02 04:12:37;;;;;;;2.38;1.30;;;;;;;9.01;38.99;99650.25;5089029;28;20055;-77
2024/03/02 04:15:06;;;;;;;2.10;1.20;;;;;;;9.02;38.92;99646.50;5086193;28;20527;-77
2024/03/02 04:17:35;;;;;;;3.13;1.50;;;;;;;9.00;39.22;99648.53;5064234;28;20179;-77
2024/03/02 04:20:06;;;;;;;2.42;1.30;;;;;;;9.00;39.23;99647.69;5088777;28;20040;-76
2024/03/02 04:22:36;;;;;;;2.58;1.30;;;;;;;9.00;38.87;99650.44;5072627;28;20044;-76
2024/03/02 04:25:07;;;;;;;3.15;1.67;;;;;;;8.99;38.83;99643.25;5082864;28;20105;-76
2024/03/02 04:27:35;;;;;;;3.00;1.40;;;;;;;8.97;39.21;99654.31;5086571;28;20044;-77
2024/03/02 04:30:05;;;;;;;3.33;1.67;;;;;;;8.96;39.00;99652.59;5078599;28;20051;-77
2024/03/02 04:32:33;;;;;;;2.80;1.48;;;;;;;8.95;39.18;99655.47;5069485;28;20044;-76
2024/03/02 04:35:01;;;;;;;3.60;1.38;;;;;;;8.94;39.15;99651.00;5087441;28;20043;-77
2024/03/02 04:37:30;;;;;;;2.58;1.42;;;;;;;8.93;39.28;99652.03;5087129;28;20055;-78
2024/03/02 04:40:00;;;;;;;3.97;1.70;;;;;;;8.92;38.82;99659.34;5073477;28;20058;-77
2024/03/02 04:42:28;;;;;;;3.25;1.58;;;;;;;8.90;39.41;99657.81;5089754;28;20048;-77
2024/03/02 04:44:56;;;;;;;2.80;1.55;;;;;;;8.88;39.11;99663.41;5084704;28;20040;-78
2024/03/02 04:47:46;;;;;;;2.72;1.30;;;;;;;8.88;39.14;99657.09;5073616;28;21474;-80
2024/03/02 04:50:17;;;;;;;2.53;1.40;;;;;;;8.82;38.93;99650.38;5094061;28;20045;-80
2024/03/02 04:52:45;;;;;;;2.28;1.30;;;;;;;8.84;39.03;99650.22;5073690;28;20048;-77
2024/03/02 04:55:52;;;;;;;2.72;1.40;;;;;;;8.83;39.14;99654.84;5064111;28;20040;-77
2024/03/02 04:58:18;;;;;;;3.70;1.70;;;;;;;8.78;39.08;99659.88;5086904;28;20453;-77
2024/03/02 05:00:48;;;;;;;2.47;1.38;;;;;;;8.80;39.19;99655.13;5082071;28;20047;-77
2024/03/02 05:03:19;;;;;;;2.50;1.40;;;;;;;8.78;39.61;99665.31;5076259;28;20046;-78
2024/03/02 05:05:47;;;;;;;3.90;1.75;;;;;;;8.77;39.22;99654.56;5088542;28;20043;-77
2024/03/02 05:08:16;;;;;;;3.03;1.60;;;;;;;8.76;39.22;99650.97;5063202;28;20663;-77
2024/03/02 05:10:46;;;;;;;3.63;1.55;;;;;;;8.76;39.55;99650.13;5066106;28;20556;-77
2024/03/02 05:13:13;;;;;;;3.20;1.42;;;;;;;8.73;39.40;99659.47;5090160;28;20067;-77
2024/03/02 05:15:41;;;;;;;2.88;1.40;;;;;;;8.73;39.05;99664.94;5085988;28;20570;-77
2024/03/02 05:18:09;;;;;;;2.80;1.55;;;;;;;8.70;39.33;99646.13;5087221;28;20062;-77
2024/03/02 05:20:37;;;;;;;2.78;1.23;;;;;;;8.68;39.43;99648.16;5065070;28;20036;-77
2024/03/02 05:23:05;;;;;;;3.25;1.23;;;;;;;8.67;39.11;99657.38;5083942;28;20453;-77
2024/03/02 05:25:35;;;;;;;3.25;1.40;;;;;;;8.66;39.46;99669.28;5077907;28;20136;-77
2024/03/02 05:28:05;;;;;;;3.00;1.42;;;;;;;8.66;39.34;99664.69;5068567;28;20115;-77
2024/03/02 05:30:33;;;;;;;2.83;1.52;;;;;;;8.64;39.62;99672.16;5065168;28;20074;-77
2024/03/02 05:33:01;;;;;;;2.95;1.50;;;;;;;8.63;39.49;99666.84;5084021;28;20048;-77
2024/03/02 05:35:29;;;;;;;2.83;1.23;;;;;;;8.63;39.34;99677.75;5076084;28;20056;-77
2024/03/02 05:37:56;;;;;;;2.42;1.33;;;;;;;8.62;39.68;99676.91;5071959;28;20040;-78
2024/03/02 05:40:24;;;;;;;3.72;1.50;;;;;;;8.62;39.58;99667.84;5084470;28;20381;-77
2024/03/02 05:42:52;;;;;;;3.33;1.48;;;;;;;8.60;39.80;99670.72;5086027;28;20139;-78
2024/03/02 05:45:22;;;;;;;2.40;1.30;;;;;;;8.62;39.84;99679.63;5069621;28;20139;-77
2024/03/02 05:47:49;;;;;;;2.58;1.40;;;;;;;8.59;39.54;99665.41;5082803;28;20077;-77
2024/03/02 05:50:19;;;;;;;2.55;1.27;;;;;;;8.58;39.41;99669.19;5082135;28;20531;-76
2024/03/02 05:52:47;;;;;;;3.55;1.60;;;;;;;8.57;39.17;99662.00;5082478;28;20066;-77
2024/03/02 05:55:15;;;;;;;2.97;1.58;;;;;;;8.54;39.35;99676.78;5081668;28;20043;-77
2024/03/02 05:57:58;;;;;;;3.70;1.48;;;;;;;8.53;39.66;99683.25;5090047;28;20079;-78
2024/03/02 06:00:28;;;;;;;3.38;1.50;;;;;;;8.53;39.35;99698.75;5070969;28;20048;-77
2024/03/02 06:02:56;;;;;;;2.83;1.80;;;;;;;8.48;39.38;99682.00;5089947;28;20032;-78
2024/03/02 06:05:24;;;;;;;4.28;1.83;;;;;;;8.49;39.39;99691.88;5073585;28;20048;-77
2024/03/02 06:07:52;;;;;;;4.20;1.70;;;;;;;8.48;39.43;99693.75;5082285;28;20512;-76
2024/03/02 06:10:20;;;;;;;4.07;1.80;;;;;;;8.46;39.47;99695.75;5081913;28;20051;-77
2024/03/02 06:12:48;;;;;;;3.17;1.50;;;;;;;8.44;39.52;99705.94;5079317;28;20102;-78
2024/03/02 06:15:16;;;;;;;3.50;1.80;;;;;;;8.44;39.47;99696.91;5082025;28;20051;-77
2024/03/02 06:17:46;;;;;;;3.05;1.60;;;;;;;8.44;39.59;99689.59;5068671;28;20502;-77
2024/03/02 06:20:14;;;;;;;2.65;1.50;;;;;;;8.42;39.48;99696.22;5078337;28;20581;-78
2024/03/02 06:22:42;;;;;;;4.40;1.80;;;;;;;8.42;39.67;99696.22;5088202;28;20044;-78
2024/03/02 06:25:10;;;;;;;2.88;1.73;;;;;;;8.40;39.70;99715.47;5084066;28;20071;-78
2024/03/02 06:27:38;;;;;;;3.97;1.75;;;;;;;8.40;39.78;99714.59;5087579;28;20098;-78
2024/03/02 06:30:06;;;;;;;3.47;1.75;;;;;;;8.40;39.55;99725.50;5068771;28;20565;-77
2024/03/02 06:32:35;;;;;;;3.70;1.60;;;;;;;8.40;39.94;99728.22;5075647;28;20042;-77
2024/03/02 06:35:08;;;;;;;3.83;1.70;;;;;;;8.41;39.62;99729.94;5074045;28;20398;-78
2024/03/02 06:37:36;;;;;;;3.90;1.67;;;;;;;8.38;39.99;99724.78;5085627;28;20040;-78
2024/03/02 06:40:04;;;;;;;2.72;1.60;;;;;;;8.39;39.75;99730.09;5078657;28;20048;-78
2024/03/02 06:42:33;;;;;;;3.33;1.80;;;;;;;8.38;39.81;99732.97;5086825;28;20044;-78
2024/03/02 06:45:02;;;;;;;3.05;1.80;;;;;;;8.39;39.68;99735.53;5089510;28;20485;-78
2024/03/02 06:47:30;;;;;;;3.83;1.77;;;;;;;8.39;39.71;99734.69;5082673;28;20091;-78
2024/03/02 06:49:58;;;;;;;3.10;1.80;;;;;;;8.38;39.86;99738.41;5084347;28;20642;-78
2024/03/02 06:52:27;;;;;;;3.25;2.20;;;;;;;8.39;39.99;99738.28;5087040;28;20032;-78
2024/03/02 06:54:55;;;;;;;3.92;1.70;;;;;;;8.39;40.36;99746.44;5068633;28;20127;-78
2024/03/02 06:57:24;;;;;;;3.40;1.70;;;;;;;8.41;40.21;99722.63;5090607;28;20560;-77
2024/03/02 06:59:54;;;;;;;3.33;1.80;;;;;;;8.42;40.29;99732.53;5092730;28;20447;-77
2024/03/02 07:02:22;;;;;;;3.85;2.00;;;;;;;8.43;40.42;99731.50;5090154;28;20040;-78
2024/03/02 07:04:51;;;;;;;4.35;1.85;;;;;;;8.45;40.10;99734.94;5084316;28;20044;-78
2024/03/02 07:07:19;;;;;;;3.75;1.85;;;;;;;8.48;40.15;99737.38;5086326;28;20414;-78
2024/03/02 07:09:48;;;;;;;4.25;1.60;;;;;;;8.52;40.02;99743.38;5062871;28;20079;-78
2024/03/02 07:12:16;;;;;;;2.97;1.70;;;;;;;8.52;40.31;99746.09;5084000;28;20048;-78
2024/03/02 07:15:11;;;;;;;4.78;1.95;;;;;;;8.53;39.99;99742.38;5068834;28;20703;-78
2024/03/02 07:17:39;;;;;;;3.08;1.80;;;;;;;8.52;39.88;99746.09;5094256;28;20063;-79
2024/03/02 07:20:08;;;;;;;3.10;1.70;;;;;;;8.54;39.86;99750.41;5066635;28;20060;-79
2024/03/02 07:22:37;;;;;;;3.65;1.90;;;;;;;8.55;39.77;99759.47;5085864;28;20067;-78
2024/03/02 07:25:09;;;;;;;3.47;1.80;;;;;;;8.57;40.17;99752.00;5101950;28;20048;-78
2024/03/02 07:27:57;;;;;;;3.03;1.70;;;;;;;8.56;40.20;99751.13;5082367;28;20056;-78
2024/03/02 07:30:25;;;;;;;3.88;1.80;;;;;;;8.59;40.70;99744.50;5090430;28;20055;-79
2024/03/02 07:32:53;;;;;;;4.10;2.00;;;;;;;8.64;40.59;99747.66;5078627;28;20040;-78
2024/03/02 07:35:22;;;;;;;3.25;1.80;;;;;;;8.69;40.66;99761.69;5084393;28;20040;-78
2024/03/02 07:37:50;;;;;;;3.05;1.80;;;;;;;8.76;40.74;99754.63;5065062;28;20044;-72
2024/03/02 07:40:19;;;;;;;4.10;1.80;;;;;;;8.86;41.20;99755.47;5083162;28;20135;-77
2024/03/02 07:42:47;;;;;;;3.13;1.90;;;;;;;8.93;41.20;99744.78;5086627;28;20033;-77
2024/03/02 07:45:15;;;;;;;4.18;1.98;;;;;;;9.03;40.96;99740.16;5066201;28;20473;-76
2024/03/02 07:47:44;;;;;;;3.80;1.98;;;;;;;9.12;40.90;99738.38;5070265;28;20499;-76
2024/03/02 07:50:12;;;;;;;4.72;2.25;;;;;;;9.20;40.70;99752.13;5079182;28;20040;-77
2024/03/02 07:52:40;;;;;;;3.05;1.80;;;;;;;9.29;40.75;99757.53;5063940;28;20044;-77
2024/03/02 07:55:08;;;;;;;3.45;1.88;;;;;;;9.38;40.51;99769.41;5081901;28;20067;-77
2024/03/02 07:57:38;;;;;;;3.22;1.85;;;;;;;9.47;40.03;99771.25;5061943;28;20117;-76
2024/03/02 08:00:09;;;;;;;2.78;1.60;;;;;;;9.54;40.24;99786.03;5081483;28;20042;-76
2024/03/02 08:02:42;;;;;;;3.05;1.70;;;;;;;9.60;40.03;99782.66;5065046;28;20049;-76
2024/03/02 08:05:10;;;;;;;3.50;2.55;;;;;;;9.64;40.01;99788.69;5076590;28;20055;-76
2024/03/02 08:07:38;;;;;;;3.55;1.65;;;;;;;9.69;39.49;99797.28;5081946;28;20047;-76
2024/03/02 08:10:07;;;;;;;3.63;1.80;;;;;;;9.73;39.93;99794.09;5082520;28;20048;-76
2024/03/02 08:12:35;;;;;;;2.90;1.65;;;;;;;9.78;39.99;99805.41;5081288;28;20041;-76
2024/03/02 08:15:06;;;;;;;3.08;1.77;;;;;;;9.84;39.61;99798.44;5078290;28;20048;-77
2024/03/02 08:17:34;;;;;;;3.25;1.67;;;;;;;9.86;39.48;99793.69;5086736;28;20075;-76
2024/03/02 08:20:07;;;;;;;3.63;2.33;;;;;;;9.91;39.38;99798.69;5087988;28;20036;-78
2024/03/02 08:22:36;;;;;;;2.63;1.65;;;;;;;9.94;39.62;99792.91;5075909;28;20621;-79
2024/03/02 08:25:04;;;;;;;2.88;1.80;;;;;;;9.99;39.15;99802.34;5070424;28;20036;-80
2024/03/02 08:27:33;;;;;;;2.45;1.70;;;;;;;10.02;39.31;99791.13;5087298;28;20040;-81
2024/03/02 08:30:03;;;;;;;2.90;1.70;;;;;;;10.04;39.68;99783.63;5077843;28;20533;-81
2024/03/02 08:32:32;;;;;;;3.78;1.52;;;;;;;10.09;39.13;99786.72;5088839;28;20074;-79
2024/03/02 08:35:00;;;;;;;3.58;1.90;;;;;;;10.13;39.13;99776.34;5084386;28;20102;-77
2024/03/02 08:37:28;;;;;;;3.75;1.75;;;;;;;10.16;39.42;99786.97;5065009;28;20050;-78
2024/03/02 08:39:57;;;;;;;3.00;1.50;;;;;;;10.19;39.37;99792.97;5089471;28;20378;-79
2024/03/02 08:42:25;;;;;;;3.40;1.73;;;;;;;10.22;39.27;99786.34;5074031;28;20110;-82
2024/03/02 08:44:53;;;;;;;3.13;1.52;;;;;;;10.26;39.00;99790.47;5064982;28;20144;-78
2024/03/02 08:47:21;;;;;;;2.63;1.60;;;;;;;10.29;38.93;99789.31;5069764;28;20051;-82
2024/03/02 08:49:50;;;;;;;3.78;2.05;;;;;;;10.33;38.83;99788.81;5074840;28;20036;-74
2024/03/02 08:52:18;;;;;;;2.85;1.55;;;;;;;10.35;38.71;99778.56;5065348;28;20051;-79
2024/03/02 08:54:46;;;;;;;3.63;1.70;;;;;;;10.36;38.74;99791.25;5087528;28;20134;-80
2024/03/02 08:57:14;;;;;;;3.13;1.63;;;;;;;10.39;38.67;99785.47;5068504;28;20040;-73
2024/03/02 08:59:43;;;;;;;2.70;1.45;;;;;;;10.42;39.11;99804.28;5068327;28;20497;-77
2024/03/02 09:02:11;;;;;;;3.25;1.65;;;;;;;10.47;38.89;99790.13;5060767;28;20040;-76
2024/03/02 09:04:39;;;;;;;3.28;1.83;;;;;;;10.50;38.95;99790.66;5055719;28;20123;-75
2024/03/02 09:07:08;;;;;;;3.03;1.70;;;;;;;10.55;38.76;99807.50;5079767;28;20299;-75
2024/03/02 09:09:38;;;;;;;2.85;1.45;;;;;;;10.59;39.48;99797.94;5079212;28;20051;-73
2024/03/02 09:12:06;;;;;;;3.53;1.40;;;;;;;10.65;39.46;99809.28;5083383;28;20049;-75
2024/03/02 09:14:36;;;;;;;3.20;1.50;;;;;;;10.72;38.92;99805.75;5066032;28;20048;-76
2024/03/02 09:17:04;;;;;;;3.65;1.67;;;;;;;10.78;39.04;99809.69;5084167;28;20122;-75
2024/03/02 09:19:32;;;;;;;3.40;1.50;;;;;;;10.83;39.04;99807.31;5079563;28;20116;-75
2024/03/02 09:22:03;;;;;;;3.05;1.48;;;;;;;10.89;39.11;99804.81;5065424;28;20135;-75
2024/03/02 09:24:32;;;;;;;2.75;1.60;;;;;;;10.97;38.86;99814.97;5075772;28;20108;-77
2024/03/02 09:27:01;;;;;;;3.92;1.73;;;;;;;11.02;38.60;99804.38;5081730;28;20130;-71
2024/03/02 09:29:29;;;;;;;2.42;1.40;;;;;;;11.08;38.66;99802.84;5086320;28;20372;-70
2024/03/02 09:31:57;;;;;;;2.15;1.30;;;;;;;11.15;38.61;99806.63;5085998;28;20047;-77
2024/03/02 09:34:25;;;;;;;2.55;1.45;;;;;;;11.20;39.06;99796.94;5082879;28;20494;-77
2024/03/02 09:36:53;;;;;;;2.85;1.50;;;;;;;11.28;39.01;99802.44;5067083;28;20036;-77
2024/03/02 09:39:21;;;;;;;3.15;1.33;;;;;;;11.36;38.77;99807.09;5075215;28;20507;-78
2024/03/02 09:41:50;;;;;;;1.85;1.02;;;;;;;11.44;38.58;99801.66;5073134;28;20497;-79
2024/03/02 09:44:19;;;;;;;2.90;1.00;;;;;;;11.49;38.10;99788.28;5077199;28;20040;-72
2024/03/02 09:46:49;;;;;;;2.47;0.98;;;;;;;11.59;37.92;99807.34;5082659;28;20086;-74
2024/03/02 09:49:18;;;;;;;2.25;0.90;;;;;;;11.63;37.99;99800.56;5081630;28;20047;-76
2024/03/02 09:51:48;;;;;;;1.45;0.73;;;;;;;11.70;37.92;99796.13;5059488;28;20033;-73
2024/03/02 09:54:18;;;;;;;1.38;0.90;;;;;;;11.75;38.16;99793.72;5078349;28;20119;-71
2024/03/02 09:56:52;;;;;;;2.40;1.00;;;;;;;11.81;37.63;99790.28;5063172;28;20131;-74
2024/03/02 09:59:20;;;;;;;1.65;0.85;;;;;;;11.86;37.71;99789.81;5080151;28;20127;-72
2024/03/02 10:01:59;;;;;;;2.30;0.95;;;;;;;11.95;36.82;99800.63;5082746;28;20044;-71
2024/03/02 10:04:27;;;;;;;2.30;0.98;;;;;;;11.95;37.78;99791.53;5060974;28;20499;-74
2024/03/02 10:07:12;;;;;;;1.90;0.90;;;;;;;12.02;36.56;99798.91;5081475;28;20048;-74
2024/03/02 10:09:40;;;;;;;2.58;0.88;;;;;;;12.04;37.52;99787.78;5084341;28;20067;-78
2024/03/02 10:12:12;;;;;;;1.80;0.90;;;;;;;12.10;37.07;99796.19;5088229;28;20304;-75
2024/03/02 10:14:40;;;;;;;2.67;1.00;;;;;;;12.13;37.67;99793.06;5084530;28;20051;-75
2024/03/02 10:17:09;;;;;;;1.88;1.00;;;;;;;12.22;37.13;99790.34;5086190;28;20554;-76
2024/03/02 10:19:38;;;;;;;1.02;0.77;;;;;;;12.28;37.16;99796.03;5066865;28;20691;-77
2024/03/02 10:22:09;;;;;;;1.30;0.75;;;;;;;12.35;36.92;99829.13;5081752;28;20040;-75
2024/03/02 10:24:39;;;;;;;1.63;0.80;;;;;;;12.41;37.19;99798.25;5086656;28;20082;-75
2024/03/02 10:27:16;;;;;;;1.48;0.90;;;;;;;12.49;36.68;99806.47;5083376;28;20507;-73
2024/03/02 10:29:47;;;;;;;1.35;0.93;;;;;;;12.54;37.07;99804.09;5082156;28;20369;-76
2024/03/02 10:32:16;;;;;;;2.15;0.95;;;;;;;12.61;37.16;99791.38;5088021;28;20036;-77
2024/03/02 10:34:48;;;;;;;2.63;0.90;;;;;;;12.67;36.52;99793.44;5074379;28;20055;-78
2024/03/02 10:37:17;;;;;;;3.38;1.40;;;;;;;12.73;36.96;99789.13;5084674;28;20036;-76
2024/03/02 10:39:47;;;;;;;4.00;1.58;;;;;;;12.81;36.53;99784.50;5086947;28;20040;-76
2024/03/02 10:42:18;;;;;;;2.50;1.08;;;;;;;12.87;36.30;99793.94;5086258;28;20456;-76
2024/03/02 10:44:47;;;;;;;1.85;1.00;;;;;;;12.92;36.26;99783.28;5058812;28;20055;-76
2024/03/02 10:47:16;;;;;;;3.15;1.10;;;;;;;12.98;36.55;99785.31;5070705;28;20060;-76
2024/03/02 10:49:47;;;;;;;1.92;1.00;;;;;;;13.05;36.45;99794.56;5078662;28;20512;-75
2024/03/02 10:52:16;;;;;;;1.92;1.00;;;;;;;13.08;35.99;99771.38;5082325;28;20582;-77
2024/03/02 10:54:44;;;;;;;2.75;1.10;;;;;;;13.12;36.00;99778.22;5081710;28;20596;-76
2024/03/02 10:57:14;;;;;;;3.17;1.20;;;;;;;13.15;35.88;99775.13;5083743;28;20066;-76
2024/03/02 10:59:53;;;;;;;3.42;1.45;;;;;;;13.20;35.07;99761.72;5071838;28;20056;-76
2024/03/02 11:02:22;;;;;;;3.20;1.63;;;;;;;13.22;35.36;99765.13;5065130;28;20511;-76
2024/03/02 11:04:55;;;;;;;2.40;1.27;;;;;;;13.23;35.60;99766.84;5077732;28;20056;-76
2024/03/02 11:07:23;;;;;;;;;;;;;;;12.96;35.90;99761.78;5085457;28;20060;-76
2024/03/02 11:09:56;;;;;;;2.65;1.10;;;;;;;13.22;34.85;99752.25;5081368;28;19924;-76
2024/03/02 11:12:29;;;;;;;2.55;1.42;;;;;;;13.23;34.65;99748.47;5083240;28;20523;-76
2024/03/02 11:14:59;;;;;;;2.00;1.20;;;;;;;13.25;34.98;99754.66;5057444;28;20079;-74
2024/03/02 11:17:27;;;;;;;3.53;1.40;;;;;;;13.25;35.02;99751.91;5083634;28;20048;-74
2024/03/02 11:19:56;;;;;;;2.80;1.33;;;;;;;13.26;35.36;99750.03;5060954;28;20047;-74
2024/03/02 11:22:24;;;;;;;2.33;1.27;;;;;;;13.28;35.44;99758.09;5086803;28;20054;-76
2024/03/02 11:24:53;;;;;;;4.13;1.30;;;;;;;13.29;35.39;99754.28;5088288;28;20048;-76
2024/03/02 11:27:55;;;;;;;3.17;1.30;;;;;;;13.32;34.29;99753.94;5085825;28;20119;-76
2024/03/02 11:30:54;;;;;;;3.53;1.40;;;;;;;13.29;34.24;99763.38;5076527;22;20094;-83
2024/03/02 11:33:31;;;;;;;2.72;1.58;;;;;;;13.30;35.20;99747.75;5073643;28;20121;-86
2024/03/02 11:36:09;;;;;;;3.17;1.33;;;;;;;13.36;34.35;99745.16;5080900;28;20044;-87
2024/03/02 11:38:45;;;;;;;2.55;1.40;;;;;;;13.33;34.59;99742.78;5069927;28;20051;-83
2024/03/02 11:41:14;;;;;;;2.13;1.20;;;;;;;13.36;34.94;99749.81;5079336;28;20040;-85
2024/03/02 11:43:54;;;;;;;2.03;1.15;;;;;;;13.41;34.16;99733.63;5071191;28;20071;-87
2024/03/02 11:46:27;;;;;;;2.65;1.50;;;;;;;13.42;33.71;99744.44;5068351;28;20413;-85
2024/03/02 11:48:55;;;;;;;2.35;1.20;;;;;;;13.40;34.40;99730.03;5057047;28;20512;-86
2024/03/02 11:51:23;;;;;;;2.67;1.17;;;;;;;13.41;34.45;99737.22;5064788;28;20032;-84
2024/03/02 11:53:55;;;;;;;1.83;1.20;;;;;;;13.43;34.64;99737.06;5063912;28;20050;-85
2024/03/02 11:56:25;;;;;;;3.28;1.15;;;;;;;13.42;34.52;99730.69;5063853;28;20040;-85